Time;durP1;ratioP1;P1;durP2;ratioP2;P2;SDS_P1;SDS_P2;PMS_P1;PMS_P2;Temp;Humidity;BMP_temperature;BMP_pressure;BME280_temperature;BME280_humidity;BME280_pressure;Samples;Min_cycle;Max_cycle;Signal;HPM_P1;HPM_P2
2023/01/23 00:01:48;;;;;;;34.23;14.63;;;;;;;;;;4997960;28;20026;-90
2023/01/23 00:04:14;;;;;;;31.73;14.47;;;;;;;;;;5014332;28;20022;-89
2023/01/23 00:06:39;;;;;;;39.07;14.63;;;;;;;;;;4997842;28;20025;-90
2023/01/23 00:09:05;;;;;;;40.13;13.90;;;;;;;;;;4997735;28;20014;-90
2023/01/23 00:11:30;;;;;;;39.17;15.20;;;;;;;;;;4997787;28;20032;-90
2023/01/23 00:13:56;;;;;;;32.90;14.13;;;;;;;;;;4996891;28;20033;-89
2023/01/23 00:16:22;;;;;;;37.50;15.00;;;;;;;;;;4997513;28;20022;-90
2023/01/23 00:18:47;;;;;;;33.60;14.37;;;;;;;;;;4997584;28;20033;-90
2023/01/23 00:21:14;;;;;;;41.70;14.50;;;;;;;;;;4997501;28;20029;-89
2023/01/23 00:23:44;;;;;;;32.00;13.97;;;;;;;;;;4997573;28;20548;-90
2023/01/23 00:26:11;;;;;;;37.60;14.97;;;;;;;;;;4996705;28;20123;-89
2023/01/23 00:28:36;;;;;;;31.00;14.53;;;;;;;;;;5012973;28;20016;-90
2023/01/23 00:31:02;;;;;;;38.03;15.23;;;;;;;;;;5015039;28;20444;-90
2023/01/23 00:33:28;;;;;;;39.03;15.20;;;;;;;;;;4996897;28;20422;-90
2023/01/23 00:35:53;;;;;;;47.60;15.60;;;;;;;;;;4997196;28;20021;-90
2023/01/23 00:38:19;;;;;;;36.73;13.30;;;;;;;;;;4996332;28;20034;-90
2023/01/23 00:40:44;;;;;;;35.83;15.00;;;;;;;;;;4996610;28;20076;-90
2023/01/23 00:43:09;;;;;;;40.60;14.97;;;;;;;;;;5014615;28;20382;-90
2023/01/23 00:45:36;;;;;;;33.17;14.13;;;;;;;;;;4996775;28;20022;-90
2023/01/23 00:48:02;;;;;;;40.37;14.53;;;;;;;;;;4997166;28;20029;-89
2023/01/23 00:50:27;;;;;;;36.07;14.47;;;;;;;;;;5013867;28;20025;-90
2023/01/23 00:52:52;;;;;;;36.77;15.67;;;;;;;;;;4997180;28;20111;-90
2023/01/23 00:55:17;;;;;;;38.10;14.73;;;;;;;;;;4997062;28;20026;-90
2023/01/23 00:57:42;;;;;;;34.23;14.60;;;;;;;;;;4996850;28;20105;-90
2023/01/23 01:00:08;;;;;;;35.23;15.00;;;;;;;;;;4996751;28;20030;-90
2023/01/23 01:02:33;;;;;;;37.60;14.53;;;;;;;;;;4995965;28;20029;-90
2023/01/23 01:04:58;;;;;;;40.63;15.70;;;;;;;;;;5013210;28;20053;-90
2023/01/23 01:07:24;;;;;;;36.47;14.50;;;;;;;;;;4996730;28;20500;-90
2023/01/23 01:09:49;;;;;;;37.80;15.63;;;;;;;;;;4995498;28;20018;-90
2023/01/23 01:12:14;;;;;;;32.30;13.37;;;;;;;;;;5014343;28;20029;-90
2023/01/23 01:14:39;;;;;;;33.77;14.20;;;;;;;;;;4996401;28;20026;-90
2023/01/23 01:17:05;;;;;;;33.40;14.47;;;;;;;;;;4996942;28;20073;-90
2023/01/23 01:19:31;;;;;;;36.10;15.50;;;;;;;;;;4995049;28;20033;-89
2023/01/23 01:21:56;;;;;;;37.07;13.50;;;;;;;;;;4996398;28;20021;-89
2023/01/23 01:24:21;;;;;;;32.07;14.37;;;;;;;;;;4996001;28;20025;-90
2023/01/23 01:26:46;;;;;;;38.07;15.73;;;;;;;;;;4995867;28;20026;-90
2023/01/23 01:29:12;;;;;;;37.70;14.50;;;;;;;;;;4996123;28;20022;-90
2023/01/23 01:31:37;;;;;;;43.33;15.83;;;;;;;;;;5013490;28;20022;-90
2023/01/23 01:34:02;;;;;;;36.43;15.93;;;;;;;;;;4996112;28;20026;-89
2023/01/23 01:36:27;;;;;;;46.03;15.37;;;;;;;;;;4995175;28;20018;-90
2023/01/23 01:38:52;;;;;;;43.23;15.53;;;;;;;;;;4995759;28;20099;-89
2023/01/23 01:41:18;;;;;;;40.47;14.43;;;;;;;;;;4996135;28;20026;-90
2023/01/23 01:43:43;;;;;;;42.27;15.27;;;;;;;;;;5013335;28;20072;-90
2023/01/23 01:46:11;;;;;;;47.10;15.13;;;;;;;;;;4995903;28;20083;-90
2023/01/23 01:48:37;;;;;;;45.93;16.40;;;;;;;;;;4994193;28;20413;-90
2023/01/23 01:51:04;;;;;;;39.77;14.63;;;;;;;;;;5004445;28;20084;-90
2023/01/23 01:53:30;;;;;;;38.30;15.33;;;;;;;;;;5007659;28;20033;-89
2023/01/23 01:55:55;;;;;;;41.80;14.83;;;;;;;;;;4995714;28;20018;-90
2023/01/23 01:58:20;;;;;;;35.20;14.20;;;;;;;;;;4995645;28;20160;-90
2023/01/23 02:00:46;;;;;;;34.67;14.47;;;;;;;;;;4994914;28;20558;-89
2023/01/23 02:03:11;;;;;;;40.47;14.90;;;;;;;;;;5013124;28;20097;-90
2023/01/23 02:05:41;;;;;;;38.27;14.60;;;;;;;;;;4995584;28;20025;-90
2023/01/23 02:08:12;;;;;;;47.73;15.33;;;;;;;;;;4994880;28;20072;-90
2023/01/23 02:10:39;;;;;;;39.50;14.70;;;;;;;;;;4995470;28;20030;-90
2023/01/23 02:13:18;;;;;;;38.93;14.87;;;;;;;;;;5012130;28;20018;-90
2023/01/23 02:15:44;;;;;;;40.03;13.63;;;;;;;;;;5013512;28;20547;-90
2023/01/23 02:18:09;;;;;;;40.37;14.17;;;;;;;;;;5013393;28;20025;-90
2023/01/23 02:20:34;;;;;;;39.77;15.80;;;;;;;;;;5012846;28;20022;-88
2023/01/23 02:23:18;;;;;;;36.73;13.47;;;;;;;;;;5012865;28;20064;-90
2023/01/23 02:25:43;;;;;;;38.30;13.90;;;;;;;;;;4994470;28;20022;-90
2023/01/23 02:28:09;;;;;;;40.90;15.10;;;;;;;;;;5008880;28;20074;-90
2023/01/23 02:30:35;;;;;;;43.77;14.87;;;;;;;;;;4995298;28;20060;-90
2023/01/23 02:33:09;;;;;;;31.23;14.13;;;;;;;;;;4995453;28;20057;-90
2023/01/23 02:35:35;;;;;;;35.93;13.33;;;;;;;;;;4982289;28;20104;-90
2023/01/23 02:38:02;;;;;;;35.47;14.27;;;;;;;;;;4994315;28;20068;-89
2023/01/23 02:40:35;;;;;;;37.43;15.07;;;;;;;;;;5012367;28;20033;-90
2023/01/23 02:43:01;;;;;;;38.13;14.33;;;;;;;;;;5012659;28;20045;-90
2023/01/23 02:45:27;;;;;;;43.00;15.27;;;;;;;;;;4993780;28;20354;-90
2023/01/23 02:47:52;;;;;;;37.73;15.10;;;;;;;;;;4994980;28;20029;-90
2023/01/23 02:50:17;;;;;;;40.27;15.43;;;;;;;;;;4994824;28;20017;-90
2023/01/23 02:52:44;;;;;;;42.10;15.47;;;;;;;;;;4994991;28;20025;-89
2023/01/23 02:55:09;;;;;;;44.27;15.57;;;;;;;;;;4993743;28;20116;-89
2023/01/23 02:57:34;;;;;;;36.17;14.20;;;;;;;;;;4995035;28;20064;-90
2023/01/23 03:00:15;;;;;;;41.63;16.87;;;;;;;;;;4994638;28;20029;-90
2023/01/23 03:02:40;;;;;;;37.17;14.60;;;;;;;;;;4994661;28;20117;-90
2023/01/23 03:05:06;;;;;;;47.73;14.37;;;;;;;;;;4994785;28;20100;-90
2023/01/23 03:07:31;;;;;;;46.00;16.60;;;;;;;;;;5011638;28;20426;-90
2023/01/23 03:09:56;;;;;;;47.63;16.67;;;;;;;;;;5012470;28;20125;-90
2023/01/23 03:12:21;;;;;;;47.67;17.03;;;;;;;;;;4995203;28;20131;-90
2023/01/23 03:14:48;;;;;;;51.50;16.53;;;;;;;;;;4994508;28;20116;-89
2023/01/23 03:17:14;;;;;;;55.13;17.37;;;;;;;;;;4994935;28;20446;-89
2023/01/23 03:19:40;;;;;;;51.87;18.17;;;;;;;;;;4993961;28;20037;-90
2023/01/23 03:22:05;;;;;;;46.20;16.77;;;;;;;;;;4994944;28;20022;-90
2023/01/23 03:24:32;;;;;;;48.13;17.10;;;;;;;;;;4994288;28;20025;-90
2023/01/23 03:26:58;;;;;;;51.73;18.57;;;;;;;;;;4994637;28;20155;-90
2023/01/23 03:32:09;;;;;;;46.20;17.03;;;;;;;;;;5013168;28;20139;-90
2023/01/23 03:34:34;;;;;;;46.17;16.37;;;;;;;;;;5013630;28;20469;-89
2023/01/23 03:37:00;;;;;;;44.43;16.30;;;;;;;;;;4997957;28;20025;-90
2023/01/23 03:42:09;;;;;;;45.30;16.00;;;;;;;;;;5015133;28;20564;-92
2023/01/23 03:44:34;;;;;;;45.20;16.07;;;;;;;;;;5015571;28;20014;-89
2023/01/23 03:47:00;;;;;;;43.47;17.17;;;;;;;;;;5015776;28;20049;-90
2023/01/23 03:49:25;;;;;;;46.87;16.53;;;;;;;;;;5014787;28;20112;-90
2023/01/23 03:51:50;;;;;;;48.23;16.90;;;;;;;;;;4998168;28;20492;-90
2023/01/23 03:54:16;;;;;;;39.17;15.17;;;;;;;;;;5014801;28;20397;-89
2023/01/23 03:56:41;;;;;;;48.70;16.63;;;;;;;;;;5015710;28;20014;-89
2023/01/23 03:59:06;;;;;;;53.83;16.80;;;;;;;;;;4997939;28;20405;-90
2023/01/23 04:01:31;;;;;;;45.87;16.10;;;;;;;;;;4997861;28;20037;-89
2023/01/23 04:03:57;;;;;;;47.70;15.77;;;;;;;;;;4997623;28;20425;-90
2023/01/23 04:06:22;;;;;;;52.73;16.43;;;;;;;;;;4997128;28;20045;-90
2023/01/23 04:08:47;;;;;;;40.67;16.20;;;;;;;;;;4997655;28;20432;-90
2023/01/23 04:11:12;;;;;;;47.63;15.37;;;;;;;;;;4997720;28;20072;-90
2023/01/23 04:13:38;;;;;;;47.87;17.63;;;;;;;;;;4997692;28;20109;-90
2023/01/23 04:16:04;;;;;;;44.53;16.47;;;;;;;;;;5015425;28;20010;-90
2023/01/23 04:18:29;;;;;;;42.47;15.50;;;;;;;;;;4997036;28;20058;-90
2023/01/23 04:20:55;;;;;;;44.73;15.90;;;;;;;;;;4997426;28;20462;-89
2023/01/23 04:23:20;;;;;;;43.57;14.33;;;;;;;;;;4997267;28;20026;-90
2023/01/23 04:25:46;;;;;;;43.03;14.23;;;;;;;;;;4997472;28;20375;-90
2023/01/23 04:28:11;;;;;;;44.07;15.87;;;;;;;;;;4997595;28;20018;-90
2023/01/23 04:30:36;;;;;;;44.53;14.50;;;;;;;;;;5014150;28;20022;-90
2023/01/23 04:33:01;;;;;;;42.30;16.13;;;;;;;;;;4997485;28;20018;-90
2023/01/23 04:35:27;;;;;;;44.50;16.17;;;;;;;;;;5014632;28;20026;-90
2023/01/23 04:37:52;;;;;;;40.47;15.67;;;;;;;;;;4997285;28;20029;-89
2023/01/23 04:40:17;;;;;;;44.27;15.50;;;;;;;;;;4996931;28;20088;-90
2023/01/23 04:42:42;;;;;;;42.97;15.57;;;;;;;;;;5012959;28;20815;-90
2023/01/23 04:45:08;;;;;;;42.63;15.70;;;;;;;;;;4988674;28;20101;-90
2023/01/23 04:47:33;;;;;;;44.70;14.63;;;;;;;;;;4991880;28;20022;-90
2023/01/23 04:49:58;;;;;;;38.00;14.53;;;;;;;;;;5014383;28;20114;-89
2023/01/23 04:52:24;;;;;;;37.57;14.27;;;;;;;;;;4997208;28;20026;-90
2023/01/23 04:54:49;;;;;;;44.50;15.90;;;;;;;;;;4996474;28;20022;-90
2023/01/23 04:57:14;;;;;;;51.40;16.30;;;;;;;;;;4996829;28;20032;-90
2023/01/23 04:59:39;;;;;;;47.50;16.73;;;;;;;;;;4996242;28;20058;-89
2023/01/23 05:02:05;;;;;;;38.80;15.93;;;;;;;;;;4996861;28;20460;-89
2023/01/23 05:04:30;;;;;;;44.57;15.57;;;;;;;;;;5013094;28;20026;-89
2023/01/23 05:06:55;;;;;;;44.23;16.77;;;;;;;;;;4996207;28;20029;-90
2023/01/23 05:09:20;;;;;;;52.10;15.97;;;;;;;;;;4996708;28;20037;-90
2023/01/23 05:11:46;;;;;;;44.53;17.23;;;;;;;;;;4996883;28;20028;-90
2023/01/23 05:14:11;;;;;;;46.37;16.87;;;;;;;;;;4996475;28;20033;-90
2023/01/23 05:16:36;;;;;;;40.87;14.87;;;;;;;;;;4995504;28;20026;-89
2023/01/23 05:19:01;;;;;;;41.70;15.23;;;;;;;;;;4996408;28;20040;-90
2023/01/23 05:21:26;;;;;;;42.60;15.90;;;;;;;;;;5013993;28;20058;-90
2023/01/23 05:23:52;;;;;;;44.90;16.67;;;;;;;;;;5013829;28;20365;-90
2023/01/23 05:26:17;;;;;;;43.43;17.73;;;;;;;;;;4996286;28;20108;-90
2023/01/23 05:28:42;;;;;;;40.90;16.80;;;;;;;;;;5010759;28;20041;-90
2023/01/23 05:31:07;;;;;;;44.93;15.57;;;;;;;;;;4996573;28;20046;-90
2023/01/23 05:33:32;;;;;;;42.87;15.90;;;;;;;;;;5013130;28;20108;-90
2023/01/23 05:35:59;;;;;;;48.00;16.40;;;;;;;;;;4996131;28;20018;-90
2023/01/23 05:38:24;;;;;;;45.10;16.70;;;;;;;;;;4995678;28;20124;-90
2023/01/23 05:40:49;;;;;;;43.07;16.50;;;;;;;;;;4995877;28;20112;-90
2023/01/23 05:43:15;;;;;;;47.17;16.47;;;;;;;;;;4996040;28;20022;-90
2023/01/23 05:45:40;;;;;;;48.47;17.53;;;;;;;;;;5012259;28;20481;-90
2023/01/23 05:48:05;;;;;;;50.97;16.97;;;;;;;;;;5013798;28;20445;-90
2023/01/23 05:50:30;;;;;;;49.17;17.83;;;;;;;;;;4995406;28;20057;-90
2023/01/23 05:52:56;;;;;;;43.63;16.47;;;;;;;;;;5013984;28;20026;-90
2023/01/23 05:55:21;;;;;;;48.87;18.07;;;;;;;;;;4995443;28;20462;-90
2023/01/23 05:57:46;;;;;;;48.53;16.87;;;;;;;;;;4995800;28;20022;-89
2023/01/23 06:00:12;;;;;;;52.20;17.47;;;;;;;;;;5013726;28;20137;-90
2023/01/23 06:02:38;;;;;;;42.53;16.90;;;;;;;;;;4994947;28;20060;-89
2023/01/23 06:05:03;;;;;;;42.17;16.97;;;;;;;;;;4995720;28;20018;-90
2023/01/23 06:07:28;;;;;;;50.80;17.57;;;;;;;;;;4995983;28;20442;-90
2023/01/23 06:09:53;;;;;;;44.33;17.17;;;;;;;;;;4995616;28;20013;-90
2023/01/23 06:12:19;;;;;;;44.37;16.20;;;;;;;;;;5013233;28;20025;-90
2023/01/23 06:14:45;;;;;;;49.63;17.30;;;;;;;;;;4994410;28;20030;-89
2023/01/23 06:17:14;;;;;;;61.03;19.37;;;;;;;;;;4995355;28;20033;-89
2023/01/23 06:19:39;;;;;;;65.03;22.07;;;;;;;;;;5013033;28;20241;-90
2023/01/23 06:22:04;;;;;;;55.30;19.07;;;;;;;;;;5013048;28;20468;-89
2023/01/23 06:24:29;;;;;;;49.67;18.93;;;;;;;;;;5013263;28;20018;-90
2023/01/23 06:26:55;;;;;;;42.87;16.40;;;;;;;;;;4994682;28;20049;-90
2023/01/23 06:29:20;;;;;;;41.53;16.77;;;;;;;;;;4995209;28;20048;-90
2023/01/23 06:31:46;;;;;;;38.83;15.90;;;;;;;;;;5013047;28;20080;-90
2023/01/23 06:34:11;;;;;;;41.63;15.63;;;;;;;;;;5012647;28;20076;-90
2023/01/23 06:36:36;;;;;;;41.30;14.87;;;;;;;;;;4995255;28;20029;-89
2023/01/23 06:39:02;;;;;;;42.90;16.63;;;;;;;;;;4995615;28;20026;-90
2023/01/23 06:41:27;;;;;;;43.53;15.43;;;;;;;;;;5012328;28;20029;-89
2023/01/23 06:43:53;;;;;;;34.03;12.20;;;;;;;;;;4994913;28;20030;-90
2023/01/23 06:46:18;;;;;;;34.57;15.17;;;;;;;;;;4994930;28;20022;-90
2023/01/23 06:48:44;;;;;;;40.30;14.53;;;;;;;;;;4994328;28;20488;-90
2023/01/23 06:51:09;;;;;;;41.20;15.57;;;;;;;;;;5012493;28;20022;-90
2023/01/23 06:53:34;;;;;;;40.37;14.53;;;;;;;;;;4994994;28;20104;-90
2023/01/23 06:56:00;;;;;;;39.17;14.80;;;;;;;;;;4994768;28;20072;-90
2023/01/23 06:58:26;;;;;;;34.87;14.47;;;;;;;;;;4994569;28;20048;-90
2023/01/23 07:00:51;;;;;;;36.47;14.67;;;;;;;;;;5005605;28;20474;-90
2023/01/23 07:03:16;;;;;;;44.63;15.97;;;;;;;;;;4991916;28;20020;-90
2023/01/23 07:05:42;;;;;;;36.70;14.47;;;;;;;;;;4994747;28;20045;-90
2023/01/23 07:08:07;;;;;;;37.50;14.63;;;;;;;;;;5015071;28;20535;-89
2023/01/23 07:10:33;;;;;;;33.73;14.23;;;;;;;;;;4998710;28;20018;-90
2023/01/23 07:12:58;;;;;;;38.23;14.37;;;;;;;;;;5011304;28;20414;-90
2023/01/23 07:15:23;;;;;;;42.87;15.53;;;;;;;;;;4997657;28;20029;-90
2023/01/23 07:17:48;;;;;;;41.40;16.27;;;;;;;;;;4998991;28;20065;-89
2023/01/23 07:20:14;;;;;;;39.23;16.20;;;;;;;;;;5016113;28;20393;-89
2023/01/23 07:22:39;;;;;;;50.00;16.00;;;;;;;;;;4998676;28;20022;-90
2023/01/23 07:25:05;;;;;;;36.67;14.17;;;;;;;;;;4997521;28;20034;-90
2023/01/23 07:27:31;;;;;;;40.43;15.43;;;;;;;;;;4998513;28;20018;-90
2023/01/23 07:29:57;;;;;;;46.47;17.30;;;;;;;;;;5016029;28;20022;-90
2023/01/23 07:32:22;;;;;;;46.90;14.83;;;;;;;;;;4997984;28;20095;-90
2023/01/23 07:34:47;;;;;;;39.97;14.70;;;;;;;;;;5014669;28;20021;-90
2023/01/23 07:37:12;;;;;;;38.63;15.60;;;;;;;;;;4997843;28;20045;-90
2023/01/23 07:39:37;;;;;;;42.67;14.70;;;;;;;;;;4998304;28;20477;-90
2023/01/23 07:42:03;;;;;;;43.87;16.27;;;;;;;;;;4998592;28;20113;-90
2023/01/23 07:44:28;;;;;;;36.83;13.90;;;;;;;;;;4998515;28;20104;-90
2023/01/23 07:46:53;;;;;;;49.70;18.03;;;;;;;;;;4998541;28;20014;-89
2023/01/23 07:49:18;;;;;;;41.63;15.37;;;;;;;;;;4997237;28;20026;-90
2023/01/23 07:51:44;;;;;;;40.33;17.47;;;;;;;;;;4998201;28;20022;-90
2023/01/23 07:54:09;;;;;;;43.90;16.87;;;;;;;;;;5012887;28;20477;-90
2023/01/23 07:56:34;;;;;;;48.23;17.70;;;;;;;;;;5014445;28;20018;-90
2023/01/23 07:58:59;;;;;;;43.30;15.60;;;;;;;;;;4997679;28;20421;-89
2023/01/23 08:01:25;;;;;;;41.53;16.17;;;;;;;;;;4997844;28;20057;-90
2023/01/23 08:03:51;;;;;;;41.70;16.47;;;;;;;;;;4997084;28;20014;-90
2023/01/23 08:06:16;;;;;;;38.53;14.30;;;;;;;;;;4998092;28;20033;-90
2023/01/23 08:08:41;;;;;;;43.50;17.17;;;;;;;;;;4997830;28;20022;-90
2023/01/23 08:11:09;;;;;;;39.53;15.73;;;;;;;;;;5014007;28;20021;-89
2023/01/23 08:13:34;;;;;;;39.07;15.50;;;;;;;;;;5015371;28;20025;-90
2023/01/23 08:16:00;;;;;;;39.90;14.70;;;;;;;;;;4997360;28;20489;-89
2023/01/23 08:18:25;;;;;;;40.43;16.27;;;;;;;;;;4997299;28;20025;-90
2023/01/23 08:20:54;;;;;;;39.00;15.87;;;;;;;;;;4997237;28;20049;-90
2023/01/23 08:23:19;;;;;;;40.30;16.23;;;;;;;;;;4996759;28;20028;-90
2023/01/23 08:25:45;;;;;;;38.73;14.43;;;;;;;;;;5001259;28;20006;-89
2023/01/23 08:28:10;;;;;;;57.50;22.60;;;;;;;;;;4997437;28;20125;-89
2023/01/23 08:30:35;;;;;;;77.03;26.07;;;;;;;;;;4996396;28;20028;-89
2023/01/23 08:33:03;;;;;;;62.03;23.03;;;;;;;;;;5011064;28;20049;-89
2023/01/23 08:35:28;;;;;;;56.63;20.03;;;;;;;;;;4996490;28;20061;-90
2023/01/23 08:37:53;;;;;;;47.13;19.10;;;;;;;;;;4997643;28;20726;-90
2023/01/23 08:40:19;;;;;;;44.47;17.23;;;;;;;;;;4995705;28;20057;-89
2023/01/23 08:42:44;;;;;;;44.83;17.13;;;;;;;;;;4996876;28;20052;-90
2023/01/23 08:45:09;;;;;;;44.40;17.47;;;;;;;;;;4997069;28;20029;-89
2023/01/23 08:47:35;;;;;;;43.77;18.30;;;;;;;;;;5013515;28;20429;-90
2023/01/23 08:50:00;;;;;;;51.03;19.07;;;;;;;;;;4996392;28;20032;-91
2023/01/23 08:52:26;;;;;;;46.60;17.53;;;;;;;;;;4997082;28;20194;-90
2023/01/23 08:54:51;;;;;;;48.00;16.73;;;;;;;;;;4996620;28;20018;-89
2023/01/23 08:57:16;;;;;;;45.73;16.97;;;;;;;;;;5014541;28;20022;-89
2023/01/23 08:59:43;;;;;;;48.47;19.07;;;;;;;;;;5012847;28;20034;-90
2023/01/23 09:02:10;;;;;;;48.57;20.13;;;;;;;;;;4997143;28;20052;-90
2023/01/23 09:04:35;;;;;;;50.27;19.63;;;;;;;;;;5014306;28;20026;-90
2023/01/23 09:07:00;;;;;;;50.57;19.30;;;;;;;;;;4996647;28;20020;-90
2023/01/23 09:09:27;;;;;;;43.30;18.37;;;;;;;;;;5013207;28;20060;-90
2023/01/23 09:11:52;;;;;;;53.37;16.77;;;;;;;;;;4996883;28;20072;-90
2023/01/23 09:14:18;;;;;;;38.27;14.77;;;;;;;;;;4996546;28;20029;-89
2023/01/23 09:16:43;;;;;;;35.10;15.57;;;;;;;;;;5012112;28;20023;-90
2023/01/23 09:19:10;;;;;;;46.10;15.57;;;;;;;;;;4996112;28;20029;-90
2023/01/23 09:21:36;;;;;;;36.87;15.33;;;;;;;;;;4996376;28;20018;-90
2023/01/23 09:24:01;;;;;;;41.30;15.87;;;;;;;;;;4996177;28;20010;-90
2023/01/23 09:26:26;;;;;;;38.50;15.03;;;;;;;;;;4994012;28;20033;-90
2023/01/23 09:28:51;;;;;;;43.07;16.27;;;;;;;;;;4995047;28;20041;-89
2023/01/23 09:31:16;;;;;;;39.20;15.70;;;;;;;;;;4996158;28;20022;-90
2023/01/23 09:33:42;;;;;;;35.90;15.77;;;;;;;;;;4996027;28;20104;-89
2023/01/23 09:36:07;;;;;;;36.00;14.30;;;;;;;;;;5013809;28;20072;-89
2023/01/23 09:38:33;;;;;;;45.77;15.60;;;;;;;;;;4995606;28;20029;-90
2023/01/23 09:40:59;;;;;;;40.70;16.37;;;;;;;;;;4996101;28;20033;-89
2023/01/23 09:43:47;;;;;;;35.10;13.30;;;;;;;;;;5013727;28;20060;-90
2023/01/23 09:46:16;;;;;;;43.50;16.10;;;;;;;;;;4976693;28;20311;-90
2023/01/23 09:48:44;;;;;;;41.87;14.63;;;;;;;;;;4995084;28;20081;-90
2023/01/23 09:51:18;;;;;;;41.40;15.17;;;;;;;;;;5013074;28;20089;-90
2023/01/23 09:53:43;;;;;;;39.20;15.83;;;;;;;;;;5013273;28;20104;-90
2023/01/23 09:56:19;;;;;;;36.80;15.80;;;;;;;;;;5011805;28;20022;-90
2023/01/23 09:58:54;;;;;;;41.90;15.97;;;;;;;;;;5013310;28;20389;-90
2023/01/23 10:01:20;;;;;;;35.03;14.33;;;;;;;;;;4994271;28;20097;-90
2023/01/23 10:03:45;;;;;;;44.30;16.17;;;;;;;;;;5013129;28;20418;-90
2023/01/23 10:06:22;;;;;;;40.53;15.33;;;;;;;;;;5013441;28;20444;-90
2023/01/23 10:08:47;;;;;;;46.00;16.57;;;;;;;;;;5013348;28;20021;-90
2023/01/23 10:11:20;;;;;;;44.90;17.47;;;;;;;;;;5012283;28;20031;-90
2023/01/23 10:14:11;;;;;;;43.70;17.77;;;;;;;;;;4994603;28;20985;-90
2023/01/23 10:16:37;;;;;;;47.03;18.23;;;;;;;;;;4974616;28;20100;-90
2023/01/23 10:19:21;;;;;;;47.83;18.27;;;;;;;;;;4995513;28;20022;-90
2023/01/23 10:21:46;;;;;;;43.57;18.20;;;;;;;;;;4995351;28;20022;-90
2023/01/23 10:24:14;;;;;;;45.37;19.03;;;;;;;;;;4995324;28;20424;-90
2023/01/23 10:26:41;;;;;;;43.97;17.47;;;;;;;;;;4995363;28;20169;-90
2023/01/23 10:29:16;;;;;;;45.47;17.80;;;;;;;;;;4993669;28;20014;-90
2023/01/23 10:31:52;;;;;;;55.13;19.70;;;;;;;;;;5011305;28;20029;-89
2023/01/23 10:34:17;;;;;;;49.90;18.97;;;;;;;;;;4984085;28;20092;-90
2023/01/23 10:36:55;;;;;;;45.77;18.57;;;;;;;;;;4995442;28;20050;-90
2023/01/23 10:39:30;;;;;;;44.80;17.37;;;;;;;;;;4994603;28;20600;-89
2023/01/23 10:41:55;;;;;;;47.57;18.70;;;;;;;;;;5010001;28;20188;-90
2023/01/23 10:44:21;;;;;;;44.47;18.00;;;;;;;;;;4992902;28;20099;-90
2023/01/23 10:46:48;;;;;;;41.47;16.43;;;;;;;;;;4995056;28;20640;-90
2023/01/23 10:49:26;;;;;;;42.30;16.93;;;;;;;;;;4995134;28;20280;-90
2023/01/23 10:51:51;;;;;;;37.90;15.43;;;;;;;;;;4995394;28;20026;-91
2023/01/23 10:54:19;;;;;;;42.17;17.33;;;;;;;;;;4994438;28;20457;-90
2023/01/23 10:56:57;;;;;;;44.07;16.43;;;;;;;;;;4995077;28;20385;-90
2023/01/23 10:59:31;;;;;;;37.97;15.27;;;;;;;;;;4994983;28;20125;-90
2023/01/23 11:01:58;;;;;;;42.57;16.40;;;;;;;;;;4994829;28;20100;-91
2023/01/23 11:04:25;;;;;;;39.60;15.93;;;;;;;;;;5012793;28;20020;-91
2023/01/23 11:07:02;;;;;;;31.67;14.00;;;;;;;;;;4994480;28;20053;-91
2023/01/23 11:09:29;;;;;;;36.63;15.23;;;;;;;;;;5012436;28;20052;-90
2023/01/23 11:11:58;;;;;;;45.10;16.47;;;;;;;;;;4995054;28;20089;-90
2023/01/23 11:14:23;;;;;;;35.10;15.40;;;;;;;;;;5012460;28;20022;-91
2023/01/23 11:17:00;;;;;;;41.50;15.53;;;;;;;;;;4994972;28;20029;-90
2023/01/23 11:19:25;;;;;;;41.97;16.43;;;;;;;;;;4993995;28;20029;-90
2023/01/23 11:21:55;;;;;;;36.07;15.30;;;;;;;;;;5011123;28;20033;-90
2023/01/23 11:24:23;;;;;;;41.60;16.83;;;;;;;;;;4994679;28;20453;-90
2023/01/23 11:26:56;;;;;;;50.60;16.83;;;;;;;;;;4994848;28;20022;-90
2023/01/23 11:29:23;;;;;;;36.50;14.40;;;;;;;;;;4994061;28;20076;-90
2023/01/23 11:31:51;;;;;;;40.93;16.27;;;;;;;;;;4994968;28;20029;-90
2023/01/23 11:34:19;;;;;;;41.13;15.17;;;;;;;;;;4994777;28;20129;-90
2023/01/23 11:36:47;;;;;;;50.83;18.23;;;;;;;;;;4995008;28;20041;-90
2023/01/23 11:39:21;;;;;;;42.90;16.13;;;;;;;;;;4994060;28;20037;-90
2023/01/23 11:41:46;;;;;;;45.70;16.30;;;;;;;;;;5010910;28;20105;-90
2023/01/23 11:44:19;;;;;;;40.43;15.73;;;;;;;;;;4994419;28;20190;-90
2023/01/23 11:46:59;;;;;;;36.40;14.40;;;;;;;;;;4994842;28;20053;-91
2023/01/23 11:49:43;;;;;;;33.97;12.83;;;;;;;;;;4994367;28;20041;-90
2023/01/23 11:52:27;;;;;;;36.97;14.50;;;;;;;;;;4994388;28;20410;-91
2023/01/23 11:55:10;;;;;;;37.60;15.23;;;;;;;;;;4998019;28;20045;-90
2023/01/23 11:57:43;;;;;;;40.77;16.37;;;;;;;;;;4998287;28;20022;-90
2023/01/23 12:00:21;;;;;;;43.20;16.03;;;;;;;;;;4998165;28;20063;-90
2023/01/23 12:03:10;;;;;;;37.83;13.90;;;;;;;;;;5014723;28;20022;-91
2023/01/23 12:05:50;;;;;;;32.73;13.50;;;;;;;;;;5002961;28;20022;-90
2023/01/23 12:08:19;;;;;;;38.27;16.23;;;;;;;;;;4998128;28;20049;-90
2023/01/23 12:10:51;;;;;;;32.10;13.30;;;;;;;;;;5015536;28;20061;-91
2023/01/23 12:13:16;;;;;;;;;;;;;;;;;;4998296;28;20393;-90
2023/01/23 12:15:45;;;;;;;40.77;16.33;;;;;;;;;;5014719;28;20496;-91
2023/01/23 12:18:13;;;;;;;34.57;14.53;;;;;;;;;;4997921;28;20661;-91
2023/01/23 12:20:38;;;;;;;35.73;13.07;;;;;;;;;;5001237;28;20080;-91
2023/01/23 12:23:22;;;;;;;44.50;16.67;;;;;;;;;;4997717;28;20021;-91
2023/01/23 12:25:52;;;;;;;38.63;15.30;;;;;;;;;;4997602;28;20070;-91
2023/01/23 12:28:40;;;;;;;38.87;13.87;;;;;;;;;;4996993;28;20026;-90
2023/01/23 12:31:05;;;;;;;40.83;17.17;;;;;;;;;;4986014;28;20014;-90
2023/01/23 12:34:01;;;;;;;42.03;15.87;;;;;;;;;;4996808;28;20893;-90
2023/01/23 12:36:26;;;;;;;41.67;15.10;;;;;;;;;;5003594;28;20504;-91
2023/01/23 12:39:09;;;;;;;37.27;15.17;;;;;;;;;;5014890;28;20341;-90
2023/01/23 12:41:40;;;;;;;36.57;14.27;;;;;;;;;;4996893;28;20030;-90
2023/01/23 12:44:05;;;;;;;37.10;14.67;;;;;;;;;;4997135;28;20121;-90
2023/01/23 12:46:33;;;;;;;46.70;17.57;;;;;;;;;;5003696;28;20045;-91
2023/01/23 12:49:04;;;;;;;41.10;17.40;;;;;;;;;;4997292;28;20017;-90
2023/01/23 12:51:33;;;;;;;33.27;13.03;;;;;;;;;;4997162;28;20022;-91
2023/01/23 12:53:59;;;;;;;40.57;15.63;;;;;;;;;;5013713;28;20018;-90
2023/01/23 12:56:27;;;;;;;41.83;15.93;;;;;;;;;;5014819;28;20148;-90
2023/01/23 12:58:59;;;;;;;39.00;15.90;;;;;;;;;;4996994;28;20018;-90
2023/01/23 13:01:37;;;;;;;40.23;17.57;;;;;;;;;;4996836;28;20136;-90
2023/01/23 13:04:02;;;;;;;40.93;16.27;;;;;;;;;;5013560;28;20095;-90
2023/01/23 13:06:27;;;;;;;36.80;15.27;;;;;;;;;;4996325;28;20481;-91
2023/01/23 13:08:58;;;;;;;42.33;16.17;;;;;;;;;;5014536;28;20021;-90
2023/01/23 13:11:46;;;;;;;41.20;15.40;;;;;;;;;;5014250;28;20132;-90
2023/01/23 13:14:17;;;;;;;37.20;14.10;;;;;;;;;;4996404;28;20033;-90
2023/01/23 13:16:47;;;;;;;35.97;15.55;;;;;;;;;;5014040;28;20024;-89
2023/01/23 13:22:24;;;;;;;38.87;14.50;;;;;;;;;;5014149;28;20037;-90
2023/01/23 13:25:08;;;;;;;40.30;14.97;;;;;;;;;;4996596;28;20022;-90
2023/01/23 13:27:35;;;;;;;37.80;14.90;;;;;;;;;;5012988;28;20079;-90
2023/01/23 13:30:01;;;;;;;36.27;13.50;;;;;;;;;;4995610;28;20026;-90
2023/01/23 13:32:27;;;;;;;37.37;14.90;;;;;;;;;;4996225;28;20042;-91
2023/01/23 13:34:52;;;;;;;35.53;14.93;;;;;;;;;;5013835;28;20026;-90
2023/01/23 13:37:38;;;;;;;40.23;17.27;;;;;;;;;;4996339;28;20022;-90
2023/01/23 13:40:17;;;;;;;40.20;14.97;;;;;;;;;;4982625;28;20046;-91
2023/01/23 13:42:43;;;;;;;46.43;18.33;;;;;;;;;;4995686;28;20026;-90
2023/01/23 13:45:14;;;;;;;50.87;19.93;;;;;;;;;;4995731;28;20021;-90
2023/01/23 13:50:49;;;;;;;33.73;13.10;;;;;;;;;;4934133;29;20023;-90
2023/01/23 13:58:56;;;;;;;41.70;16.83;;;;;;;;;;5013884;28;20388;-90
2023/01/23 14:06:56;;;;;;;38.23;15.60;;;;;;;;;;5012814;28;20536;-90
2023/01/23 14:09:23;;;;;;;37.13;15.77;;;;;;;;;;4995495;28;20022;-90
2023/01/23 14:11:55;;;;;;;40.13;16.20;;;;;;;;;;4995356;28;20163;-90
2023/01/23 14:17:04;;;;;;;43.67;17.10;;;;;;;;;;5011965;28;20359;-91
2023/01/23 14:19:30;;;;;;;39.33;16.80;;;;;;;;;;5012592;28;20034;-90
2023/01/23 14:21:59;;;;;;;39.67;16.30;;;;;;;;;;4994463;28;20033;-90
2023/01/23 14:24:45;;;;;;;37.83;15.10;;;;;;;;;;5012635;28;20098;-90
2023/01/23 14:27:24;;;;;;;34.00;14.60;;;;;;;;;;4994754;28;20064;-90
2023/01/23 14:30:08;;;;;;;38.13;15.80;;;;;;;;;;4987004;28;20025;-90
2023/01/23 14:32:33;;;;;;;28.40;12.17;;;;;;;;;;4984908;28;20029;-90
2023/01/23 14:34:58;;;;;;;35.50;13.97;;;;;;;;;;4995279;28;20028;-90
2023/01/23 14:37:24;;;;;;;25.73;10.60;;;;;;;;;;4995209;28;20020;-90
2023/01/23 14:39:50;;;;;;;32.80;13.67;;;;;;;;;;5012326;28;20085;-91
2023/01/23 14:42:23;;;;;;;29.27;13.87;;;;;;;;;;4995076;28;20018;-90
2023/01/23 14:44:49;;;;;;;36.20;12.97;;;;;;;;;;4995122;28;20331;-90
2023/01/23 14:47:25;;;;;;;29.73;12.20;;;;;;;;;;4994812;28;20029;-91